Time;durP1;ratioP1;P1;durP2;ratioP2;P2;SDS_P1;SDS_P2;PMS_P1;PMS_P2;Temp;Humidity;BMP_temperature;BMP_pressure;BME280_temperature;BME280_humidity;BME280_pressure;Samples;Min_cycle;Max_cycle;Signal;HPM_P1;HPM_P2
2023/05/02 05:51:46;;;;;;;3.83;2.60;;;;;;;;;;10587050;27;20401;-85
2023/05/02 05:56:47;;;;;;;6.13;3.55;;;;;;;;;;10565514;28;20032;-85
2023/05/02 06:01:48;;;;;;;6.13;3.15;;;;;;;;;;10584764;22;20116;-81
2023/05/02 06:06:50;;;;;;;3.03;2.60;;;;;;;;;;10505721;28;20021;-82
2023/05/02 06:11:51;;;;;;;6.50;3.38;;;;;;;;;;10525905;28;20024;-81
2023/05/02 06:16:52;;;;;;;;;;;;;;;;;;10529199;28;20028;-80
2023/05/02 06:21:53;;;;;;;3.80;2.38;;;;;;;;;;10548173;28;19904;-81
2023/05/02 06:26:54;;;;;;;4.10;2.28;;;;;;;;;;10529312;28;20113;-81
2023/05/02 06:31:55;;;;;;;5.20;2.60;;;;;;;;;;10528765;28;20565;-81
2023/05/02 06:36:56;;;;;;;3.70;2.15;;;;;;;;;;10527707;28;20031;-81
2023/05/02 06:41:58;;;;;;;3.08;2.25;;;;;;;;;;10528720;28;20050;-81
2023/05/02 06:46:59;;;;;;;4.85;2.30;;;;;;;;;;10528649;28;20021;-81
2023/05/02 06:52:00;;;;;;;4.43;2.60;;;;;;;;;;10559339;28;20078;-80
2023/05/02 06:57:01;;;;;;;2.75;1.80;;;;;;;;;;10567798;28;20032;-80
2023/05/02 07:02:02;;;;;;;4.57;2.05;;;;;;;;;;10516133;28;20035;-81
2023/05/02 07:07:03;;;;;;;3.03;1.60;;;;;;;;;;10501742;28;20024;-82
2023/05/02 07:12:05;;;;;;;4.47;1.85;;;;;;;;;;10497014;28;20028;-82
2023/05/02 07:17:06;;;;;;;3.13;1.70;;;;;;;;;;10497347;28;20390;-82
2023/05/02 07:22:07;;;;;;;3.00;1.65;;;;;;;;;;10517358;28;20081;-82
2023/05/02 07:27:09;;;;;;;2.85;1.52;;;;;;;;;;10503646;28;20324;-83
2023/05/02 07:32:10;;;;;;;1.73;1.30;;;;;;;;;;10503103;28;20024;-81
2023/05/02 07:37:11;;;;;;;2.22;1.20;;;;;;;;;;10498027;28;20046;-81
2023/05/02 07:42:12;;;;;;;2.90;1.90;;;;;;;;;;10496044;28;20082;-82
2023/05/02 07:47:13;;;;;;;6.35;3.55;;;;;;;;;;10514988;28;20157;-81
2023/05/02 07:52:14;;;;;;;8.00;6.10;;;;;;;;;;10495797;28;20513;-81
2023/05/02 07:57:15;;;;;;;7.80;5.65;;;;;;;;;;10516876;28;20076;-81
2023/05/02 08:02:18;;;;;;;7.93;5.82;;;;;;;;;;10512557;28;20421;-80
2023/05/02 08:07:20;;;;;;;9.05;5.10;;;;;;;;;;10495902;28;20035;-80
2023/05/02 08:12:21;;;;;;;7.72;5.53;;;;;;;;;;10496212;28;20029;-79
2023/05/02 08:17:22;;;;;;;9.35;5.75;;;;;;;;;;10493667;28;20054;-79
2023/05/02 08:22:23;;;;;;;7.38;3.42;;;;;;;;;;10493839;28;20062;-80
2023/05/02 08:27:24;;;;;;;5.22;3.15;;;;;;;;;;10511054;28;20055;-79
2023/05/02 08:32:26;;;;;;;7.55;3.35;;;;;;;;;;10508860;28;20048;-79
2023/05/02 08:37:27;;;;;;;5.45;2.90;;;;;;;;;;10493005;28;20024;-82
2023/05/02 08:42:28;;;;;;;4.70;2.60;;;;;;;;;;10503579;28;20024;-82
2023/05/02 08:47:31;;;;;;;8.20;4.50;;;;;;;;;;10512260;28;20020;-81
2023/05/02 08:52:32;;;;;;;5.20;2.83;;;;;;;;;;10503285;28;20375;-80
2023/05/02 08:57:34;;;;;;;5.93;2.30;;;;;;;;;;10494104;28;20112;-80
2023/05/02 09:02:35;;;;;;;6.70;2.55;;;;;;;;;;10491727;28;20070;-82
2023/05/02 09:07:46;;;;;;;5.45;2.20;;;;;;;;;;10511569;28;20024;-82
2023/05/02 09:12:47;;;;;;;6.57;2.10;;;;;;;;;;10503604;28;20440;-82
2023/05/02 09:17:49;;;;;;;5.80;2.03;;;;;;;;;;10498144;28;20031;-81
2023/05/02 09:22:50;;;;;;;9.18;2.20;;;;;;;;;;10509070;28;20021;-80
2023/05/02 09:27:55;;;;;;;9.80;1.98;;;;;;;;;;10490792;28;20025;-79
2023/05/02 09:32:56;;;;;;;4.65;1.90;;;;;;;;;;10489981;28;20124;-80
2023/05/02 09:37:58;;;;;;;6.38;2.80;;;;;;;;;;10507392;28;20025;-80
2023/05/02 09:42:59;;;;;;;5.28;2.22;;;;;;;;;;10488198;28;20027;-79
2023/05/02 09:48:03;;;;;;;5.13;2.95;;;;;;;;;;10506979;28;20074;-79
2023/05/02 09:53:05;;;;;;;4.38;1.92;;;;;;;;;;10488447;28;20036;-79
2023/05/02 09:58:06;;;;;;;6.05;2.92;;;;;;;;;;10507505;28;20028;-80
2023/05/02 10:03:08;;;;;;;6.20;2.20;;;;;;;;;;10506729;28;20020;-81
2023/05/02 10:08:10;;;;;;;6.45;2.78;;;;;;;;;;10506777;28;20078;-78
2023/05/02 10:13:12;;;;;;;6.78;2.28;;;;;;;;;;10487426;28;20116;-79
2023/05/02 10:18:15;;;;;;;4.45;2.45;;;;;;;;;;10488701;28;20055;-83
2023/05/02 10:23:16;;;;;;;5.25;1.95;;;;;;;;;;10491525;28;20355;-83
2023/05/02 10:28:18;;;;;;;4.82;2.00;;;;;;;;;;10493058;28;20035;-82
2023/05/02 10:33:20;;;;;;;5.65;2.15;;;;;;;;;;10491457;28;20078;-82
2023/05/02 10:38:21;;;;;;;3.95;1.67;;;;;;;;;;10516915;28;20025;-81
2023/05/02 10:43:23;;;;;;;4.80;2.22;;;;;;;;;;10505360;28;20096;-81
2023/05/02 10:48:25;;;;;;;6.03;3.38;;;;;;;;;;10507362;28;20036;-81
2023/05/02 10:53:36;;;;;;;5.97;2.47;;;;;;;;;;10494943;28;20141;-80
2023/05/02 10:58:37;;;;;;;;;;;;;;;;;;10495379;28;20356;-80
2023/05/02 11:03:38;;;;;;;;;;;;;;;;;;10494469;28;19912;-81
2023/05/02 11:08:40;;;;;;;5.60;2.00;;;;;;;;;;10496065;28;19970;-80
2023/05/02 11:13:51;;;;;;;4.32;1.95;;;;;;;;;;10493539;28;20039;-81
2023/05/02 11:18:59;;;;;;;5.95;2.03;;;;;;;;;;10497076;28;20096;-80
2023/05/02 11:24:19;;;;;;;3.20;2.17;;;;;;;;;;10498898;28;20028;-82
2023/05/02 11:29:39;;;;;;;4.03;1.93;;;;;;;;;;10500482;28;20548;-81
2023/05/02 11:34:41;;;;;;;6.00;2.20;;;;;;;;;;10500801;28;20056;-82
2023/05/02 11:39:43;;;;;;;3.53;1.70;;;;;;;;;;10517977;28;20367;-82
2023/05/02 11:44:59;;;;;;;3.20;1.90;;;;;;;;;;10518152;28;20023;-83
2023/05/02 11:50:03;;;;;;;4.47;2.28;;;;;;;;;;10502182;28;20457;-81
2023/05/02 11:55:10;;;;;;;4.07;1.73;;;;;;;;;;10522723;28;20055;-81
2023/05/02 12:00:11;;;;;;;3.72;2.15;;;;;;;;;;10523195;22;20025;-82
2023/05/02 12:05:13;;;;;;;5.63;1.92;;;;;;;;;;10563509;28;20043;-79
2023/05/02 12:10:14;;;;;;;4.35;2.08;;;;;;;;;;10558124;28;20043;-80
2023/05/02 12:15:16;;;;;;;6.25;2.38;;;;;;;;;;10557243;28;20378;-84
2023/05/02 12:20:17;;;;;;;3.45;1.70;;;;;;;;;;10553168;28;20040;-82
2023/05/02 12:25:18;;;;;;;3.53;2.28;;;;;;;;;;10553321;28;20092;-82
2023/05/02 12:30:29;;;;;;;4.47;2.90;;;;;;;;;;10555410;28;20028;-82
2023/05/02 12:35:31;;;;;;;4.82;2.30;;;;;;;;;;10554377;28;20040;-81
2023/05/02 12:40:32;;;;;;;3.13;1.77;;;;;;;;;;10557940;28;20024;-82
2023/05/02 12:45:33;;;;;;;5.68;1.90;;;;;;;;;;10558331;28;20495;-81
2023/05/02 12:50:35;;;;;;;3.42;1.90;;;;;;;;;;10560766;28;20504;-80
2023/05/02 12:55:37;;;;;;;3.70;1.95;;;;;;;;;;10560267;28;20102;-83
2023/05/02 13:00:38;;;;;;;5.85;2.53;;;;;;;;;;10554529;28;20062;-81
2023/05/02 13:05:40;;;;;;;9.18;3.55;;;;;;;;;;10555801;28;20423;-81
2023/05/02 13:10:42;;;;;;;3.85;1.88;;;;;;;;;;10554857;28;20070;-81
2023/05/02 13:15:43;;;;;;;5.85;3.00;;;;;;;;;;10550942;28;20020;-81
2023/05/02 13:20:44;;;;;;;8.38;3.90;;;;;;;;;;10551934;28;20023;-82
2023/05/02 13:25:45;;;;;;;8.00;3.70;;;;;;;;;;10552255;28;20051;-81
2023/05/02 13:30:46;;;;;;;6.68;3.20;;;;;;;;;;10549882;28;20096;-82
2023/05/02 13:35:47;;;;;;;5.95;2.70;;;;;;;;;;10550024;28;20031;-80
2023/05/02 13:40:48;;;;;;;4.22;2.83;;;;;;;;;;10549686;28;20031;-82
2023/05/02 13:45:51;;;;;;;7.20;3.38;;;;;;;;;;10550392;28;20028;-81
2023/05/02 13:50:52;;;;;;;7.18;4.10;;;;;;;;;;10550082;28;20024;-81
2023/05/02 13:55:53;;;;;;;5.38;2.88;;;;;;;;;;10551042;28;20488;-82
2023/05/02 14:00:54;;;;;;;4.75;2.55;;;;;;;;;;10554199;28;20032;-81
2023/05/02 14:05:55;;;;;;;6.32;2.75;;;;;;;;;;10552831;28;20024;-81
2023/05/02 14:10:56;;;;;;;7.90;5.18;;;;;;;;;;10555462;28;20169;-79
2023/05/02 14:15:57;;;;;;;4.72;2.40;;;;;;;;;;10557660;28;20469;-82
2023/05/02 14:20:58;;;;;;;9.50;3.53;;;;;;;;;;10558495;28;20078;-81
2023/05/02 14:26:00;;;;;;;7.40;3.63;;;;;;;;;;10557930;28;20039;-80
2023/05/02 14:31:01;;;;;;;7.25;3.45;;;;;;;;;;10557880;28;20024;-81
2023/05/02 14:36:02;;;;;;;5.18;2.38;;;;;;;;;;10556514;28;20477;-81
2023/05/02 14:41:04;;;;;;;6.50;3.75;;;;;;;;;;10555498;28;20122;-81
2023/05/02 14:46:05;;;;;;;5.57;3.20;;;;;;;;;;10556611;28;20070;-81
2023/05/02 14:51:06;;;;;;;6.22;2.88;;;;;;;;;;10557187;28;20031;-81
2023/05/02 14:56:12;;;;;;;6.97;4.43;;;;;;;;;;10555043;28;20092;-80
2023/05/02 15:01:17;;;;;;;7.18;4.00;;;;;;;;;;10556031;28;20366;-81
2023/05/02 15:06:18;;;;;;;5.30;3.30;;;;;;;;;;10555485;28;20173;-81
2023/05/02 15:11:19;;;;;;;6.43;2.75;;;;;;;;;;10553624;28;20060;-81
2023/05/02 15:16:20;;;;;;;5.75;3.13;;;;;;;;;;10557823;28;20024;-82
2023/05/02 15:21:21;;;;;;;6.22;3.60;;;;;;;;;;10554747;28;20395;-80
2023/05/02 15:26:24;;;;;;;10.23;3.80;;;;;;;;;;10554323;28;20029;-81
2023/05/02 15:31:26;;;;;;;6.03;4.00;;;;;;;;;;10555396;28;20020;-82
2023/05/02 15:36:28;;;;;;;8.23;4.18;;;;;;;;;;10554427;28;20102;-80
2023/05/02 15:41:29;;;;;;;7.50;4.18;;;;;;;;;;10552987;28;20020;-81
2023/05/02 15:46:30;;;;;;;7.00;3.97;;;;;;;;;;10557204;28;20059;-82
2023/05/02 15:51:31;;;;;;;6.68;4.45;;;;;;;;;;10566621;28;20097;-80
2023/05/02 15:56:32;;;;;;;6.40;4.10;;;;;;;;;;10562971;28;20026;-81
2023/05/02 16:01:33;;;;;;;3.83;2.47;;;;;;;;;;10552983;28;20063;-81
2023/05/02 16:06:35;;;;;;;7.70;3.47;;;;;;;;;;10552400;28;20031;-81
2023/05/02 16:11:36;;;;;;;6.28;3.25;;;;;;;;;;10549052;28;20025;-79
2023/05/02 16:16:37;;;;;;;5.60;2.35;;;;;;;;;;10549802;28;20077;-84
2023/05/02 16:21:41;;;;;;;8.43;3.10;;;;;;;;;;10557106;28;20104;-83
2023/05/02 16:26:42;;;;;;;6.50;3.83;;;;;;;;;;10558780;28;20044;-83
2023/05/02 16:31:43;;;;;;;5.57;3.08;;;;;;;;;;10550071;28;20024;-79
2023/05/02 16:36:45;;;;;;;7.20;4.10;;;;;;;;;;10564588;28;20027;-81
2023/05/02 16:41:48;;;;;;;5.47;3.70;;;;;;;;;;10556523;28;20032;-82
2023/05/02 16:46:49;;;;;;;7.90;4.88;;;;;;;;;;10550136;28;20111;-78
2023/05/02 16:51:50;;;;;;;6.53;3.75;;;;;;;;;;10545722;28;20499;-79
2023/05/02 16:56:52;;;;;;;6.45;3.88;;;;;;;;;;10547297;28;20087;-81
2023/05/02 17:01:53;;;;;;;6.05;3.15;;;;;;;;;;10553064;28;20028;-82
2023/05/02 17:06:55;;;;;;;6.82;3.30;;;;;;;;;;10550559;28;20031;-82
2023/05/02 17:11:57;;;;;;;8.05;3.72;;;;;;;;;;10549845;28;20031;-81
2023/05/02 17:16:58;;;;;;;6.65;3.55;;;;;;;;;;10550878;28;20024;-81
2023/05/02 17:22:00;;;;;;;7.85;3.83;;;;;;;;;;10551009;28;20123;-81
2023/05/02 17:27:02;;;;;;;8.60;3.45;;;;;;;;;;10551407;28;20086;-82
2023/05/02 17:32:03;;;;;;;6.30;3.63;;;;;;;;;;10546290;28;20036;-80
2023/05/02 17:37:06;;;;;;;5.47;3.88;;;;;;;;;;10548364;28;20040;-80
2023/05/02 17:42:07;;;;;;;7.32;3.65;;;;;;;;;;10552218;28;20116;-82
2023/05/02 17:47:08;;;;;;;3.78;2.53;;;;;;;;;;10552279;28;20027;-81
2023/05/02 17:52:09;;;;;;;4.20;2.83;;;;;;;;;;10547637;28;20388;-82
2023/05/02 17:57:11;;;;;;;4.07;2.75;;;;;;;;;;10547146;28;20111;-82
2023/05/02 18:02:12;;;;;;;9.60;4.72;;;;;;;;;;10548474;28;20094;-82
2023/05/02 18:07:13;;;;;;;5.40;3.70;;;;;;;;;;10557112;28;20118;-82
2023/05/02 18:12:14;;;;;;;6.82;3.58;;;;;;;;;;10555980;28;20020;-83
2023/05/02 18:17:19;;;;;;;4.32;2.58;;;;;;;;;;10553865;28;20028;-83
2023/05/02 18:22:20;;;;;;;3.80;2.60;;;;;;;;;;10553360;28;20070;-83
2023/05/02 18:27:21;;;;;;;4.90;2.50;;;;;;;;;;10555121;28;20477;-83
2023/05/02 18:32:24;;;;;;;5.57;2.67;;;;;;;;;;10556354;28;20062;-83
2023/05/02 18:37:30;;;;;;;4.60;2.67;;;;;;;;;;10555247;28;20025;-83
2023/05/02 18:42:31;;;;;;;3.25;2.17;;;;;;;;;;10555486;28;20031;-83
2023/05/02 18:47:32;;;;;;;6.13;2.85;;;;;;;;;;10553673;28;20191;-83
2023/05/02 18:52:33;;;;;;;4.57;2.75;;;;;;;;;;10554491;28;20097;-84
2023/05/02 18:57:34;;;;;;;4.95;2.67;;;;;;;;;;10559685;28;20032;-82
2023/05/02 19:02:35;;;;;;;2.95;2.03;;;;;;;;;;10560860;28;20039;-81
2023/05/02 19:07:36;;;;;;;6.97;3.35;;;;;;;;;;10560687;28;20031;-82
2023/05/02 19:12:38;;;;;;;3.33;2.15;;;;;;;;;;10562125;28;20092;-83
